createdAt,value
2023-05-02T00:00:43.837Z,28.94
2023-05-02T00:01:43.942Z,28.94
2023-05-02T00:02:43.993Z,28.95
2023-05-02T00:03:43.983Z,28.93
2023-05-02T00:04:43.844Z,28.94
2023-05-02T00:05:43.781Z,28.93
2023-05-02T00:06:43.797Z,28.95
2023-05-02T00:07:43.764Z,28.96
2023-05-02T00:08:43.752Z,28.97
2023-05-02T00:09:43.750Z,28.93
2023-05-02T00:10:43.757Z,28.97
2023-05-02T00:11:43.721Z,29.00
2023-05-02T00:12:43.712Z,28.93
2023-05-02T00:13:43.707Z,28.96
2023-05-02T00:14:43.690Z,29.00
2023-05-02T00:15:43.697Z,28.99
2023-05-02T00:16:43.692Z,28.94
2023-05-02T00:17:43.701Z,29.01
2023-05-02T00:18:43.734Z,29.01
2023-05-02T00:19:43.816Z,29.01
2023-05-02T00:20:43.869Z,28.99
2023-05-02T00:21:43.916Z,29.00
2023-05-02T00:22:43.945Z,29.06
2023-05-02T00:23:44.010Z,29.03
2023-05-02T00:24:44.075Z,29.04
2023-05-02T00:25:44.123Z,29.03
2023-05-02T00:26:44.202Z,29.03
2023-05-02T00:27:44.231Z,28.99
2023-05-02T00:28:44.263Z,29.03
2023-05-02T00:29:44.306Z,28.96
2023-05-02T00:30:44.407Z,28.96
2023-05-02T00:31:44.489Z,29.01
2023-05-02T00:32:44.526Z,28.95
2023-05-02T00:33:44.509Z,28.99
2023-05-02T00:34:44.572Z,28.99
2023-05-02T00:35:44.611Z,29.00
2023-05-02T00:36:44.657Z,29.01
2023-05-02T00:37:44.709Z,29.00
2023-05-02T00:38:44.773Z,28.94
2023-05-02T00:39:44.823Z,29.03
2023-05-02T00:40:44.861Z,29.00
2023-05-02T00:41:44.925Z,29.05
2023-05-02T00:42:44.967Z,28.99
2023-05-02T00:43:44.971Z,29.00
2023-05-02T00:44:44.959Z,29.01
2023-05-02T00:45:44.947Z,28.95
2023-05-02T00:46:45.029Z,28.97
2023-05-02T00:47:44.957Z,28.95
2023-05-02T00:48:44.943Z,29.02
2023-05-02T00:49:44.920Z,28.96
2023-05-02T00:50:44.916Z,28.97
2023-05-02T00:51:44.907Z,28.96
2023-05-02T00:52:44.953Z,28.97
2023-05-02T00:53:44.984Z,29.00
2023-05-02T00:54:45.049Z,29.00
2023-05-02T00:55:45.088Z,29.03
2023-05-02T00:56:45.130Z,29.01
2023-05-02T00:57:45.191Z,28.99
2023-05-02T00:58:45.267Z,29.00
2023-05-02T00:59:45.336Z,29.03
2023-05-02T01:00:45.377Z,29.03
2023-05-02T01:01:45.562Z,28.97
2023-05-02T01:02:45.518Z,29.02
2023-05-02T01:03:45.619Z,29.00
2023-05-02T01:04:45.582Z,29.02
2023-05-02T01:05:45.611Z,28.97
2023-05-02T01:06:45.751Z,28.99
2023-05-02T01:07:45.720Z,28.97
2023-05-02T01:08:45.756Z,29.00
2023-05-02T01:09:45.784Z,29.00
2023-05-02T01:10:45.843Z,29.02
2023-05-02T01:11:45.911Z,29.01
2023-05-02T01:12:45.945Z,29.05
2023-05-02T01:13:46.037Z,29.06
2023-05-02T01:14:46.107Z,28.99
2023-05-02T01:15:46.161Z,29.05
2023-05-02T01:16:46.218Z,29.07
2023-05-02T01:17:46.289Z,29.05
2023-05-02T01:18:46.252Z,28.99
2023-05-02T01:19:46.286Z,29.00
2023-05-02T01:20:46.324Z,29.05
2023-05-02T01:21:46.363Z,29.06
2023-05-02T01:22:46.423Z,29.03
2023-05-02T01:23:46.466Z,28.99
2023-05-02T01:24:46.467Z,29.06
2023-05-02T01:25:46.497Z,29.00
2023-05-02T01:26:46.530Z,29.03
2023-05-02T01:27:46.564Z,29.01
2023-05-02T01:28:46.602Z,29.03
2023-05-02T01:29:46.631Z,29.05
2023-05-02T01:30:46.675Z,29.05
2023-05-02T01:31:46.759Z,29.03
2023-05-02T01:32:46.822Z,29.06
2023-05-02T01:33:46.830Z,29.05
2023-05-02T01:34:46.875Z,29.03
2023-05-02T01:35:46.924Z,28.99
2023-05-02T01:36:46.989Z,28.98
2023-05-02T01:37:47.025Z,28.99
2023-05-02T01:38:47.082Z,28.98
2023-05-02T01:39:47.169Z,29.02
2023-05-02T01:40:47.204Z,28.98
2023-05-02T01:41:47.242Z,28.94
2023-05-02T01:42:47.283Z,28.94
2023-05-02T01:43:47.351Z,28.98
2023-05-02T01:44:47.322Z,28.95
2023-05-02T01:45:47.367Z,28.97
2023-05-02T01:46:47.406Z,28.91
2023-05-02T01:47:47.336Z,28.92
2023-05-02T01:48:47.300Z,28.94
2023-05-02T01:49:47.298Z,28.91
2023-05-02T01:50:47.287Z,28.88
2023-05-02T01:51:47.294Z,28.88
2023-05-02T01:52:47.304Z,28.95
2023-05-02T01:53:47.365Z,28.93
2023-05-02T01:54:47.408Z,28.89
2023-05-02T01:55:47.438Z,28.94
2023-05-02T01:56:47.506Z,28.88
2023-05-02T01:57:47.557Z,28.90
2023-05-02T01:58:47.603Z,28.97
2023-05-02T01:59:47.626Z,28.91
2023-05-02T02:00:47.726Z,28.95
2023-05-02T02:01:47.727Z,28.92
2023-05-02T02:02:47.872Z,28.95
2023-05-02T02:03:47.836Z,28.91
2023-05-02T02:04:47.977Z,28.88
2023-05-02T02:05:47.925Z,28.92
2023-05-02T02:06:48.034Z,28.94
2023-05-02T02:07:48.049Z,28.91
2023-05-02T02:08:48.110Z,28.94
2023-05-02T02:09:48.214Z,28.94
2023-05-02T02:10:48.263Z,28.90
2023-05-02T02:11:48.300Z,28.91
2023-05-02T02:12:48.345Z,28.94
2023-05-02T02:13:48.415Z,28.97
2023-05-02T02:14:48.471Z,28.91
2023-05-02T02:15:48.526Z,28.91
2023-05-02T02:16:48.640Z,28.94
2023-05-02T02:17:48.676Z,28.93
2023-05-02T02:18:48.732Z,28.93
2023-05-02T02:19:48.773Z,28.91
2023-05-02T02:20:48.851Z,28.97
2023-05-02T02:21:49.164Z,28.94
2023-05-02T02:22:48.987Z,28.92
2023-05-02T02:23:49.027Z,28.90
2023-05-02T02:24:49.084Z,28.93
2023-05-02T02:25:49.158Z,28.91
2023-05-02T02:26:49.216Z,28.93
2023-05-02T02:27:49.300Z,28.93
2023-05-02T02:28:49.334Z,28.91
2023-05-02T02:29:49.407Z,28.87
2023-05-02T02:30:49.529Z,28.87
2023-05-02T02:31:49.523Z,28.87
2023-05-02T02:32:49.621Z,28.90
2023-05-02T02:33:49.664Z,28.90
2023-05-02T02:34:49.720Z,28.91
2023-05-02T02:35:49.714Z,28.91
2023-05-02T02:36:49.796Z,28.83
2023-05-02T02:37:49.714Z,28.82
2023-05-02T02:38:49.679Z,28.80
2023-05-02T02:39:49.688Z,28.79
2023-05-02T02:40:49.693Z,28.79
2023-05-02T02:41:49.772Z,28.76
2023-05-02T02:42:49.634Z,28.70
2023-05-02T02:43:49.666Z,28.68
2023-05-02T02:44:49.605Z,28.56
2023-05-02T02:45:49.660Z,28.45
2023-05-02T02:46:49.645Z,28.54
2023-05-02T02:47:49.643Z,28.53
2023-05-02T02:48:49.572Z,28.48
2023-05-02T02:49:49.589Z,28.53
2023-05-02T02:50:49.616Z,28.48
2023-05-02T02:51:49.657Z,28.47
2023-05-02T02:52:49.703Z,28.48
2023-05-02T02:53:49.721Z,28.49
2023-05-02T02:54:49.717Z,28.49
2023-05-02T02:55:49.726Z,28.49
2023-05-02T02:56:49.725Z,28.45
2023-05-02T02:57:49.734Z,28.40
2023-05-02T02:58:49.727Z,28.44
2023-05-02T02:59:49.728Z,28.45
2023-05-02T03:00:49.792Z,28.39
2023-05-02T03:01:49.831Z,28.39
2023-05-02T03:02:49.779Z,28.41
2023-05-02T03:03:49.876Z,28.29
2023-05-02T03:04:49.767Z,28.29
2023-05-02T03:05:49.779Z,28.27
2023-05-02T03:06:49.887Z,28.24
2023-05-02T03:07:49.777Z,28.23
2023-05-02T03:08:49.784Z,28.19
2023-05-02T03:09:49.847Z,28.13
2023-05-02T03:10:49.804Z,28.07
2023-05-02T03:11:49.829Z,28.13
2023-05-02T03:12:49.823Z,28.10
2023-05-02T03:13:49.822Z,28.10
2023-05-02T03:14:49.824Z,28.10
2023-05-02T03:15:49.854Z,28.11
2023-05-02T03:16:49.854Z,28.11
2023-05-02T03:17:49.886Z,28.12
2023-05-02T03:18:49.856Z,28.10
2023-05-02T03:19:49.861Z,28.15
2023-05-02T03:20:49.865Z,28.12
2023-05-02T03:21:49.902Z,28.17
2023-05-02T03:22:49.906Z,28.10
2023-05-02T03:23:49.919Z,28.14
2023-05-02T03:24:49.933Z,28.14
2023-05-02T03:25:49.941Z,28.15
2023-05-02T03:26:49.953Z,28.15
2023-05-02T03:27:49.975Z,28.14
2023-05-02T03:28:49.978Z,28.14
2023-05-02T03:29:49.990Z,28.10
2023-05-02T03:30:49.971Z,28.15
2023-05-02T03:31:50.032Z,28.13
2023-05-02T03:32:50.002Z,28.16
2023-05-02T03:33:49.979Z,28.14
2023-05-02T03:34:49.992Z,28.21
2023-05-02T03:35:49.994Z,28.23
2023-05-02T03:36:49.993Z,28.23
2023-05-02T03:37:49.993Z,28.35
2023-05-02T03:38:50.000Z,28.35
2023-05-02T03:39:49.973Z,28.30
2023-05-02T03:40:49.999Z,28.34
2023-05-02T03:41:49.976Z,28.34
2023-05-02T03:42:49.991Z,28.37
2023-05-02T03:43:49.969Z,28.34
2023-05-02T03:44:49.963Z,28.37
2023-05-02T03:45:49.984Z,28.31
2023-05-02T03:46:50.016Z,28.37
2023-05-02T03:47:50.062Z,28.35
2023-05-02T03:48:49.947Z,28.39
2023-05-02T03:49:49.970Z,28.36
2023-05-02T03:50:49.948Z,28.42
2023-05-02T03:51:49.941Z,28.40
2023-05-02T03:52:49.952Z,28.40
2023-05-02T03:53:49.988Z,28.39
2023-05-02T03:54:49.991Z,28.39
2023-05-02T03:55:50.028Z,28.44
2023-05-02T03:56:50.077Z,28.51
2023-05-02T03:57:50.094Z,28.46
2023-05-02T03:58:50.115Z,28.50
2023-05-02T03:59:50.129Z,28.57
2023-05-02T04:00:50.147Z,28.57
2023-05-02T04:01:50.326Z,28.63
2023-05-02T04:02:50.451Z,28.63
2023-05-02T04:03:50.255Z,28.65
2023-05-02T04:04:50.276Z,28.61
2023-05-02T04:05:50.293Z,28.65
2023-05-02T04:06:50.439Z,28.63
2023-05-02T04:07:50.356Z,28.70
2023-05-02T04:08:50.399Z,28.67
2023-05-02T04:09:50.423Z,28.76
2023-05-02T04:10:50.432Z,28.70
2023-05-02T04:11:50.466Z,28.67
2023-05-02T04:12:50.489Z,28.73
2023-05-02T04:13:52.045Z,28.71
2023-05-02T04:14:50.527Z,28.66
2023-05-02T04:15:50.527Z,28.63
2023-05-02T04:16:50.589Z,28.63
2023-05-02T04:17:50.590Z,28.60
2023-05-02T04:18:50.516Z,28.59
2023-05-02T04:19:50.516Z,28.62
2023-05-02T04:20:50.516Z,28.63
2023-05-02T04:21:50.545Z,28.64
2023-05-02T04:22:50.526Z,28.67
2023-05-02T04:23:50.518Z,28.67
2023-05-02T04:24:50.524Z,28.66
2023-05-02T04:25:50.508Z,28.68
2023-05-02T04:26:50.560Z,28.72
2023-05-02T04:27:50.534Z,28.74
2023-05-02T04:28:50.517Z,28.76
2023-05-02T04:29:50.631Z,28.80
2023-05-02T04:30:50.532Z,28.80
2023-05-02T04:31:50.488Z,28.81
2023-05-02T04:32:50.539Z,28.82
2023-05-02T04:33:50.494Z,28.88
2023-05-02T04:34:50.488Z,28.85
2023-05-02T04:35:50.491Z,28.88
2023-05-02T04:36:50.501Z,28.87
2023-05-02T04:37:50.493Z,28.84
2023-05-02T04:38:50.498Z,28.84
2023-05-02T04:39:50.502Z,28.85
2023-05-02T04:40:50.508Z,28.86
2023-05-02T04:41:50.528Z,28.82
2023-05-02T04:42:50.515Z,28.85
2023-05-02T04:43:50.563Z,28.88
2023-05-02T04:44:50.556Z,28.81
2023-05-02T04:45:50.626Z,28.86
2023-05-02T04:46:50.681Z,28.89
2023-05-02T04:47:50.568Z,28.86
2023-05-02T04:48:50.549Z,28.86
2023-05-02T04:49:50.547Z,28.89
2023-05-02T04:50:50.556Z,28.87
2023-05-02T04:51:50.581Z,28.99
2023-05-02T04:52:50.567Z,28.98
2023-05-02T04:53:50.553Z,29.02
2023-05-02T04:54:50.548Z,29.01
2023-05-02T04:55:50.549Z,29.01
2023-05-02T04:56:50.559Z,29.01
2023-05-02T04:57:50.605Z,29.01
2023-05-02T04:58:50.561Z,29.01
2023-05-02T04:59:50.592Z,29.04
2023-05-02T05:00:50.612Z,29.05
2023-05-02T05:01:50.743Z,29.08
2023-05-02T05:02:50.735Z,28.99
2023-05-02T05:03:50.872Z,29.03
2023-05-02T05:04:50.745Z,29.06
2023-05-02T05:05:50.771Z,29.09
2023-05-02T05:06:50.913Z,29.14
2023-05-02T05:07:50.878Z,29.13
2023-05-02T05:08:50.910Z,29.15
2023-05-02T05:09:53.194Z,29.17
2023-05-02T05:10:51.020Z,29.14
2023-05-02T05:11:51.067Z,29.13
2023-05-02T05:12:51.140Z,29.14
2023-05-02T05:13:51.164Z,29.11
2023-05-02T05:14:51.198Z,29.13
2023-05-02T05:15:51.271Z,29.10
2023-05-02T05:16:51.318Z,29.09
2023-05-02T05:17:51.314Z,29.12
2023-05-02T05:18:51.343Z,29.14
2023-05-02T05:19:51.348Z,29.12
2023-05-02T05:20:51.361Z,29.09
2023-05-02T05:21:51.381Z,29.09
2023-05-02T05:22:51.374Z,29.10
2023-05-02T05:23:51.379Z,29.03
2023-05-02T05:24:51.353Z,29.08
2023-05-02T05:25:51.352Z,29.05
2023-05-02T05:26:51.358Z,29.07
2023-05-02T05:27:51.402Z,29.09
2023-05-02T05:28:51.369Z,29.15
2023-05-02T05:29:51.366Z,29.10
2023-05-02T05:30:51.371Z,29.16
2023-05-02T05:31:51.664Z,29.14
2023-05-02T05:32:51.454Z,29.13
2023-05-02T05:33:51.406Z,29.10
2023-05-02T05:34:51.367Z,29.19
2023-05-02T05:35:51.366Z,29.36
2023-05-02T05:36:51.481Z,28.80
2023-05-02T05:37:51.444Z,28.75
2023-05-02T05:38:51.570Z,29.39
2023-05-02T05:39:51.547Z,30.07
2023-05-02T05:40:51.596Z,30.18
2023-05-02T05:41:51.632Z,30.73
2023-05-02T05:42:51.696Z,30.93
2023-05-02T05:43:51.739Z,31.08
2023-05-02T05:44:51.832Z,30.93
2023-05-02T05:45:51.840Z,30.86
2023-05-02T05:46:51.956Z,31.18
2023-05-02T05:47:52.024Z,31.15
2023-05-02T05:48:51.971Z,31.24
2023-05-02T05:49:51.988Z,31.21
2023-05-02T05:50:52.183Z,31.37
2023-05-02T05:51:52.120Z,31.52
2023-05-02T05:52:52.126Z,31.27
2023-05-02T05:53:52.151Z,31.43
2023-05-02T05:54:52.196Z,31.17
2023-05-02T05:55:52.372Z,30.96
2023-05-02T05:56:52.295Z,30.83
2023-05-02T05:57:52.327Z,30.69
2023-05-02T05:58:52.382Z,30.76
2023-05-02T05:59:52.423Z,30.56
2023-05-02T06:00:52.511Z,30.53
2023-05-02T06:01:52.610Z,30.52
2023-05-02T06:02:52.791Z,30.44
2023-05-02T06:03:52.811Z,30.44
2023-05-02T06:04:52.914Z,30.42
2023-05-02T06:05:52.970Z,30.46
2023-05-02T06:06:53.087Z,30.53
2023-05-02T06:07:53.168Z,30.72
2023-05-02T06:08:53.199Z,30.60
2023-05-02T06:09:53.217Z,30.52
2023-05-02T06:10:53.287Z,30.55
2023-05-02T06:11:53.267Z,30.71
2023-05-02T06:12:53.353Z,30.58
2023-05-02T06:13:53.405Z,30.75
2023-05-02T06:14:53.393Z,30.93
2023-05-02T06:15:53.462Z,30.73
2023-05-02T06:16:53.429Z,30.88
2023-05-02T06:17:53.512Z,30.84
2023-05-02T06:18:53.537Z,30.84
2023-05-02T06:19:53.626Z,31.19
2023-05-02T06:20:53.624Z,31.26
2023-05-02T06:21:54.276Z,31.17
2023-05-02T06:22:53.647Z,31.13
2023-05-02T06:23:53.678Z,31.25
2023-05-02T06:24:54.263Z,31.25
2023-05-02T06:25:54.322Z,31.30
2023-05-02T06:26:53.766Z,31.29
2023-05-02T06:27:53.961Z,31.29
2023-05-02T06:28:53.827Z,31.41
2023-05-02T06:29:53.929Z,31.48
2023-05-02T06:30:53.896Z,31.38
2023-05-02T06:31:54.077Z,31.30
2023-05-02T06:32:54.123Z,31.16
2023-05-02T06:33:54.071Z,31.16
2023-05-02T06:34:54.092Z,30.98
2023-05-02T06:35:54.110Z,31.02
2023-05-02T06:36:54.136Z,31.04
2023-05-02T06:37:54.263Z,30.96
2023-05-02T06:38:54.437Z,30.87
2023-05-02T06:39:54.216Z,30.78
2023-05-02T06:40:54.255Z,30.74
2023-05-02T06:41:54.318Z,30.67
2023-05-02T06:42:54.360Z,30.54
2023-05-02T06:43:54.316Z,30.49
2023-05-02T06:44:54.369Z,30.43
2023-05-02T06:45:54.353Z,30.32
2023-05-02T06:46:54.433Z,30.20
2023-05-02T06:47:54.642Z,30.11
2023-05-02T06:48:54.462Z,30.04
2023-05-02T06:49:54.482Z,29.93
2023-05-02T06:50:54.549Z,29.72
2023-05-02T06:51:54.461Z,29.80
2023-05-02T06:52:54.502Z,29.66
2023-05-02T06:53:54.493Z,29.62
2023-05-02T06:54:54.568Z,29.57
2023-05-02T06:55:54.524Z,29.49
2023-05-02T06:56:54.569Z,29.49
2023-05-02T06:57:54.520Z,29.37
2023-05-02T06:58:54.531Z,29.26
2023-05-02T06:59:54.561Z,29.28
2023-05-02T07:00:54.563Z,29.21
2023-05-02T07:01:54.546Z,29.13
2023-05-02T07:02:54.610Z,29.09
2023-05-02T07:03:54.597Z,29.05
2023-05-02T07:04:54.596Z,29.00
2023-05-02T07:05:54.570Z,28.94
2023-05-02T07:06:54.589Z,28.95
2023-05-02T07:07:54.604Z,28.81
2023-05-02T07:08:54.575Z,28.79
2023-05-02T07:09:54.666Z,28.76
2023-05-02T07:10:54.712Z,28.74
2023-05-02T07:11:54.909Z,28.72
2023-05-02T07:12:54.850Z,28.67
2023-05-02T07:13:54.928Z,28.66
2023-05-02T07:14:54.951Z,28.61
2023-05-02T07:15:55.072Z,28.55
2023-05-02T07:16:55.185Z,28.59
2023-05-02T07:17:55.199Z,28.49
2023-05-02T07:18:55.188Z,28.47
2023-05-02T07:19:55.203Z,28.45
2023-05-02T07:20:55.160Z,28.43
2023-05-02T07:21:55.243Z,28.35
2023-05-02T07:22:55.179Z,28.39
2023-05-02T07:23:55.197Z,28.36
2023-05-02T07:24:55.172Z,28.29
2023-05-02T07:25:55.265Z,28.34
2023-05-02T07:26:55.216Z,28.28
2023-05-02T07:27:58.901Z,28.27
2023-05-02T07:28:55.219Z,28.26
2023-05-02T07:29:55.251Z,28.25
2023-05-02T07:30:55.209Z,28.22
2023-05-02T07:31:55.240Z,28.25
2023-05-02T07:32:55.332Z,28.12
2023-05-02T07:33:55.198Z,28.13
2023-05-02T07:34:55.216Z,28.14
2023-05-02T07:35:55.226Z,28.15
2023-05-02T07:36:55.186Z,28.10
2023-05-02T07:37:55.224Z,28.09
2023-05-02T07:38:55.252Z,28.02
2023-05-02T07:39:55.213Z,28.02
2023-05-02T07:40:55.230Z,28.06
2023-05-02T07:41:55.206Z,27.99
2023-05-02T07:42:55.292Z,28.03
2023-05-02T07:43:55.234Z,27.99
2023-05-02T07:44:55.254Z,28.01
2023-05-02T07:45:55.337Z,28.00
2023-05-02T07:46:55.307Z,28.00
2023-05-02T07:47:55.314Z,27.96
2023-05-02T07:48:55.260Z,27.92
2023-05-02T07:49:55.223Z,27.95
2023-05-02T07:50:55.207Z,27.92
2023-05-02T07:51:55.222Z,27.98
2023-05-02T07:52:55.233Z,27.92
2023-05-02T07:53:55.215Z,27.95
2023-05-02T07:54:55.283Z,27.95
2023-05-02T07:55:55.208Z,27.97
2023-05-02T07:56:55.198Z,27.94
2023-05-02T07:57:55.250Z,27.94
2023-05-02T07:58:55.213Z,27.90
2023-05-02T07:59:55.209Z,27.90
2023-05-02T08:00:55.217Z,27.87
2023-05-02T08:01:55.203Z,27.82
2023-05-02T08:02:55.347Z,27.85
2023-05-02T08:03:55.322Z,27.83
2023-05-02T08:04:55.239Z,27.82
2023-05-02T08:05:55.295Z,27.82
2023-05-02T08:06:55.361Z,27.78
2023-05-02T08:07:55.229Z,27.86
2023-05-02T08:08:55.184Z,27.80
2023-05-02T08:09:55.158Z,27.81
2023-05-02T08:10:55.161Z,27.78
2023-05-02T08:11:55.146Z,27.84
2023-05-02T08:12:55.176Z,27.86
2023-05-02T08:13:55.161Z,27.91
2023-05-02T08:14:55.154Z,27.84
2023-05-02T08:15:55.195Z,27.90
2023-05-02T08:16:55.133Z,27.90
2023-05-02T08:17:55.222Z,27.88
2023-05-02T08:18:55.117Z,27.92
2023-05-02T08:19:55.113Z,27.92
2023-05-02T08:20:55.118Z,27.96
2023-05-02T08:21:55.127Z,27.97
2023-05-02T08:22:55.185Z,27.93
2023-05-02T08:23:55.214Z,28.00
2023-05-02T08:24:55.119Z,27.96
2023-05-02T08:25:55.156Z,28.03
2023-05-02T08:26:55.143Z,27.98
2023-05-02T08:27:55.123Z,28.07
2023-05-02T08:28:55.086Z,28.04
2023-05-02T08:29:55.093Z,28.04
2023-05-02T08:30:56.117Z,28.10
2023-05-02T08:31:55.112Z,28.08
2023-05-02T08:32:55.110Z,28.08
2023-05-02T08:33:55.122Z,28.09
2023-05-02T08:34:55.048Z,28.07
2023-05-02T08:35:55.061Z,28.09
2023-05-02T08:36:56.207Z,28.12
2023-05-02T08:37:55.050Z,28.15
2023-05-02T08:38:55.043Z,28.17
2023-05-02T08:39:55.040Z,28.11
2023-05-02T08:40:55.018Z,28.05
2023-05-02T08:41:55.067Z,28.06
2023-05-02T08:42:55.051Z,27.98
2023-05-02T08:43:55.013Z,28.02
2023-05-02T08:44:55.018Z,27.95
2023-05-02T08:45:54.995Z,27.93
2023-05-02T08:46:55.024Z,27.93
2023-05-02T08:47:55.415Z,27.93
2023-05-02T08:48:55.026Z,27.86
2023-05-02T08:49:55.021Z,27.81
2023-05-02T08:50:54.975Z,27.85
2023-05-02T08:51:54.960Z,27.80
2023-05-02T08:52:54.983Z,27.80
2023-05-02T08:53:54.995Z,27.74
2023-05-02T08:54:55.033Z,27.79
2023-05-02T08:55:55.062Z,27.77
2023-05-02T08:56:55.813Z,27.70
2023-05-02T08:57:55.008Z,27.70
2023-05-02T09:01:33.389Z,27.65
2023-05-02T09:02:33.356Z,27.68
2023-05-02T09:03:33.328Z,27.63
2023-05-02T09:04:33.351Z,27.65
2023-05-02T09:05:33.323Z,27.58
2023-05-02T09:06:33.331Z,27.63
2023-05-02T09:07:33.352Z,27.62
2023-05-02T09:09:52.473Z,27.64
2023-05-02T09:10:52.466Z,27.61
2023-05-02T09:11:52.473Z,27.61
2023-05-02T09:12:52.470Z,27.59
2023-05-02T09:13:52.525Z,27.59
2023-05-02T09:14:52.482Z,27.58
2023-05-02T09:15:52.483Z,27.55
2023-05-02T09:16:52.732Z,27.60
2023-05-02T09:19:11.650Z,27.63
2023-05-02T09:20:11.668Z,27.63
2023-05-02T09:21:12.668Z,27.60
2023-05-02T09:22:11.649Z,27.58
2023-05-02T09:23:11.700Z,27.60
2023-05-02T09:24:11.681Z,27.63
2023-05-02T09:25:11.742Z,27.69
2023-05-02T09:26:11.729Z,27.60
2023-05-02T09:27:11.725Z,27.62
2023-05-02T09:28:11.833Z,27.62
2023-05-02T09:29:11.738Z,27.59
2023-05-02T09:30:11.759Z,27.60
2023-05-02T09:31:11.823Z,27.62
2023-05-02T09:32:11.828Z,27.62
2023-05-02T09:33:11.909Z,27.59
2023-05-02T09:34:11.827Z,27.60
2023-05-02T09:35:11.807Z,27.60
2023-05-02T09:36:11.826Z,27.59
2023-05-02T09:37:11.824Z,27.58
2023-05-02T09:38:11.910Z,27.56
2023-05-02T09:39:14.812Z,27.58
2023-05-02T09:40:11.856Z,27.60
2023-05-02T09:41:11.874Z,27.60
2023-05-02T09:42:11.890Z,27.61
2023-05-02T09:43:11.890Z,27.57
2023-05-02T09:44:11.933Z,27.58
2023-05-02T09:45:11.915Z,27.57
2023-05-02T09:46:12.051Z,27.58
2023-05-02T09:47:11.925Z,27.60
2023-05-02T09:48:11.985Z,27.57
2023-05-02T09:49:11.958Z,27.60
2023-05-02T09:50:11.977Z,27.58
2023-05-02T09:51:11.966Z,27.55
2023-05-02T09:52:12.008Z,27.53
2023-05-02T09:53:12.022Z,27.53
2023-05-02T09:54:12.012Z,27.60
2023-05-02T09:55:12.012Z,27.55
2023-05-02T09:56:12.040Z,27.53
2023-05-02T09:57:12.058Z,27.56
2023-05-02T09:58:12.087Z,27.55
2023-05-02T09:59:12.169Z,27.55
2023-05-02T10:00:12.845Z,27.55
2023-05-02T10:01:12.122Z,27.56
2023-05-02T10:02:14.972Z,27.55
2023-05-02T10:03:12.170Z,27.59
2023-05-02T10:04:12.137Z,27.60
2023-05-02T10:05:12.937Z,27.62
2023-05-02T10:06:12.133Z,27.65
2023-05-02T10:07:12.140Z,27.62
2023-05-02T10:08:12.185Z,27.71
2023-05-02T10:09:13.772Z,27.64
2023-05-02T10:10:12.169Z,27.66
2023-05-02T10:11:12.182Z,27.66
2023-05-02T10:12:12.190Z,27.65
2023-05-02T10:13:12.476Z,27.65
2023-05-02T10:14:12.841Z,27.66
2023-05-02T10:15:12.183Z,27.69
2023-05-02T10:16:12.207Z,27.68
2023-05-02T10:17:12.180Z,27.68
2023-05-02T10:18:12.254Z,27.68
2023-05-02T10:19:12.174Z,27.63
2023-05-02T10:20:12.194Z,27.58
2023-05-02T10:21:12.223Z,27.68
2023-05-02T10:22:12.185Z,27.64
2023-05-02T10:23:12.196Z,27.63
2023-05-02T10:24:12.272Z,27.66
2023-05-02T10:25:12.231Z,27.56
2023-05-02T10:26:12.192Z,27.63
2023-05-02T10:27:12.294Z,27.62
2023-05-02T10:28:12.236Z,27.63
2023-05-02T10:29:12.216Z,27.60
2023-05-02T10:30:12.221Z,27.63
2023-05-02T10:31:12.344Z,27.62
2023-05-02T10:32:12.229Z,27.66
2023-05-02T10:33:12.291Z,27.60
2023-05-02T10:34:12.241Z,27.64
2023-05-02T10:35:12.248Z,27.61
2023-05-02T10:36:12.261Z,27.61
2023-05-02T10:37:12.247Z,27.61
2023-05-02T10:38:12.328Z,27.64
2023-05-02T10:39:12.279Z,27.57
2023-05-02T10:40:12.276Z,27.58
2023-05-02T10:41:12.351Z,27.54
2023-05-02T10:42:12.329Z,27.60
2023-05-02T10:43:12.286Z,27.55
2023-05-02T10:44:12.280Z,27.53
2023-05-02T10:45:12.294Z,27.55
2023-05-02T10:46:12.315Z,27.49
2023-05-02T10:47:12.341Z,27.49
2023-05-02T10:48:12.492Z,27.47
2023-05-02T10:49:12.305Z,27.46
2023-05-02T10:50:12.331Z,27.53
2023-05-02T10:51:12.308Z,27.43
2023-05-02T10:52:12.307Z,27.49
2023-05-02T10:53:12.424Z,27.39
2023-05-02T10:54:12.304Z,27.46
2023-05-02T10:55:12.306Z,27.45
2023-05-02T10:56:12.341Z,27.46
2023-05-02T10:57:12.361Z,27.42
2023-05-02T10:58:12.313Z,27.39
2023-05-02T10:59:12.316Z,27.41
2023-05-02T11:00:12.313Z,27.41
2023-05-02T11:01:12.382Z,27.41
2023-05-02T11:02:12.383Z,27.42
2023-05-02T11:03:12.444Z,27.41
2023-05-02T11:04:12.319Z,27.35
2023-05-02T11:05:12.365Z,27.38
2023-05-02T11:06:12.393Z,27.38
2023-05-02T11:07:12.351Z,27.33
2023-05-02T11:08:12.357Z,27.33
2023-05-02T11:09:12.377Z,27.34
2023-05-02T11:10:12.343Z,27.33
2023-05-02T11:11:13.318Z,27.33
2023-05-02T11:12:12.366Z,27.31
2023-05-02T11:13:12.413Z,27.28
2023-05-02T11:14:13.111Z,27.30
2023-05-02T11:15:12.404Z,27.30
2023-05-02T11:16:12.374Z,27.31
2023-05-02T11:17:12.391Z,27.26
2023-05-02T11:18:12.774Z,27.30
2023-05-02T11:19:12.370Z,27.26
2023-05-02T11:20:12.394Z,27.27
2023-05-02T11:21:12.384Z,27.27
2023-05-02T11:22:12.372Z,27.27
2023-05-02T11:23:12.381Z,27.27
2023-05-02T11:24:12.383Z,27.27
2023-05-02T11:25:12.355Z,27.29
2023-05-02T11:26:12.421Z,27.25
2023-05-02T11:27:13.286Z,27.26
2023-05-02T11:28:12.973Z,27.26
2023-05-02T11:29:12.393Z,27.31
2023-05-02T11:30:13.500Z,27.25
2023-05-02T11:31:12.386Z,27.31
2023-05-02T11:32:12.429Z,27.31
2023-05-02T11:33:12.990Z,27.24
2023-05-02T11:34:12.446Z,27.28
2023-05-02T11:35:12.457Z,27.30
2023-05-02T11:36:12.402Z,27.24
2023-05-02T11:37:12.446Z,27.26
2023-05-02T11:38:12.422Z,27.24
2023-05-02T11:39:12.417Z,27.31
2023-05-02T11:40:12.501Z,27.33
2023-05-02T11:41:12.412Z,27.31
2023-05-02T11:42:12.396Z,27.30
2023-05-02T11:43:12.408Z,27.30
2023-05-02T11:44:12.377Z,27.31
2023-05-02T11:45:12.403Z,27.30
2023-05-02T11:46:12.388Z,27.26
2023-05-02T11:47:12.420Z,27.30
2023-05-02T11:48:12.472Z,27.27
2023-05-02T11:49:12.712Z,27.26
2023-05-02T11:50:12.449Z,27.27
2023-05-02T11:51:12.464Z,27.28
2023-05-02T11:52:12.432Z,27.27
2023-05-02T11:53:12.436Z,27.29
2023-05-02T11:54:12.441Z,27.37
2023-05-02T11:55:12.440Z,27.42
2023-05-02T11:56:12.440Z,27.41
2023-05-02T11:57:12.448Z,27.38
2023-05-02T11:58:12.438Z,27.39
2023-05-02T11:59:12.439Z,27.35
2023-05-02T12:00:12.469Z,27.35
2023-05-02T12:01:12.445Z,27.32
2023-05-02T12:02:12.451Z,27.32
2023-05-02T12:03:12.565Z,27.32
2023-05-02T12:04:12.445Z,27.35
2023-05-02T12:05:12.543Z,27.32
2023-05-02T12:06:12.881Z,27.30
2023-05-02T12:07:12.511Z,27.25
2023-05-02T12:08:12.454Z,27.35
2023-05-02T12:09:12.463Z,27.24
2023-05-02T12:10:12.484Z,27.29
2023-05-02T12:11:12.466Z,27.22
2023-05-02T12:12:12.460Z,27.25
2023-05-02T12:13:12.466Z,27.22
2023-05-02T12:14:12.464Z,27.26
2023-05-02T12:15:12.471Z,27.22
2023-05-02T12:16:12.550Z,27.22
2023-05-02T12:17:12.479Z,27.24
2023-05-02T12:18:12.536Z,27.29
2023-05-02T12:19:12.922Z,27.31
2023-05-02T12:20:12.471Z,27.26
2023-05-02T12:21:12.477Z,27.25
2023-05-02T12:22:12.474Z,27.25
2023-05-02T12:23:12.482Z,27.25
2023-05-02T12:24:12.501Z,27.29
2023-05-02T12:25:12.490Z,27.28
2023-05-02T12:26:12.494Z,27.28
2023-05-02T12:27:12.516Z,27.26
2023-05-02T12:28:12.489Z,27.30
2023-05-02T12:29:12.542Z,27.30
2023-05-02T12:30:12.488Z,27.32
2023-05-02T12:31:12.564Z,27.26
2023-05-02T12:32:12.513Z,27.29
2023-05-02T12:33:12.487Z,27.32
2023-05-02T12:34:12.953Z,27.32
2023-05-02T12:35:12.464Z,27.33
2023-05-02T12:36:12.482Z,27.27
2023-05-02T12:37:12.478Z,27.26
2023-05-02T12:38:12.481Z,27.33
2023-05-02T12:39:12.480Z,27.30
2023-05-02T12:40:12.475Z,27.33
2023-05-02T12:41:12.467Z,27.36
2023-05-02T12:42:12.478Z,27.34
2023-05-02T12:43:12.492Z,27.31
2023-05-02T12:44:12.475Z,27.32
2023-05-02T12:45:12.461Z,27.36
2023-05-02T12:46:12.460Z,27.33
2023-05-02T12:47:12.552Z,27.31
2023-05-02T12:48:12.523Z,27.36
2023-05-02T12:49:12.630Z,27.33
2023-05-02T12:50:12.458Z,27.27
2023-05-02T12:51:12.508Z,27.31
2023-05-02T12:52:12.474Z,27.34
2023-05-02T12:53:12.463Z,27.31
2023-05-02T12:54:12.469Z,27.29
2023-05-02T12:55:12.471Z,27.33
2023-05-02T12:56:12.471Z,27.33
2023-05-02T12:57:12.483Z,27.31
2023-05-02T12:58:12.470Z,27.29